Westfield, Indiana
Current Conditions -  °F | °C
As of 12:55 PM on Sunday 21 Dec 2014 (Local Time) from KTYQ Reporting Station
Clear Clear  
Wind Chill: 28°   Ceiling: Unl
Heat Index: 35°   Visibility: 10mi
Dew Point: 25°   Wind: 8mph
Humidity: 68%   Direction: 160°SSE
Pressure: 30.21"   Gusts: NA
Location:  40.04°N, 86.13°W
Report Text: KTYQ 211755Z AUTO 16007KT 10SM CLR 02/M04 A3021 RMK AO2 T00161037 10019 21065
Loading
Personal Weather Stations






























Interactive Weather Map New forecast layout! Learn more

10-Day Weather Forecast

Advertisements
Track Severe Weather on mobile